createdAt,value
2018-12-12T00:02:08.713Z,3.77
2018-12-12T00:04:37.672Z,3.33
2018-12-12T00:07:06.735Z,3.40
2018-12-12T00:09:35.663Z,3.37
2018-12-12T00:12:04.741Z,2.80
2018-12-12T00:14:33.643Z,6.00
2018-12-12T00:17:02.738Z,2.57
2018-12-12T00:19:32.355Z,4.60
2018-12-12T00:22:01.445Z,2.20
2018-12-12T00:24:30.402Z,2.00
2018-12-12T00:26:59.359Z,3.80
2018-12-12T00:29:28.319Z,2.90
2018-12-12T00:31:57.419Z,1.90
2018-12-12T00:34:26.507Z,2.00
2018-12-12T00:36:55.447Z,2.00
2018-12-12T00:39:24.343Z,3.17
2018-12-12T00:41:53.316Z,2.70
2018-12-12T00:44:22.320Z,1.40
2018-12-12T00:46:51.516Z,2.13
2018-12-12T00:49:20.717Z,1.93
2018-12-12T00:51:49.818Z,1.20
2018-12-12T00:54:18.889Z,2.07
2018-12-12T00:56:47.993Z,1.30
2018-12-12T00:59:17.087Z,1.60
2018-12-12T01:01:46.071Z,2.13
2018-12-12T01:04:14.968Z,1.30
2018-12-12T01:06:43.955Z,2.20
2018-12-12T01:09:12.939Z,1.67
2018-12-12T01:11:47.830Z,1.97
2018-12-12T01:14:17.133Z,2.17
2018-12-12T01:16:46.130Z,1.43
2018-12-12T01:19:15.083Z,1.83
2018-12-12T01:21:44.066Z,1.57
2018-12-12T01:24:13.018Z,1.83
2018-12-12T01:26:42.644Z,1.87
2018-12-12T01:29:11.606Z,1.67
2018-12-12T01:31:40.523Z,1.33
2018-12-12T01:34:09.486Z,1.10
2018-12-12T01:36:38.398Z,1.10
2018-12-12T01:39:07.355Z,1.00
2018-12-12T01:41:36.249Z,1.27
2018-12-12T01:44:05.155Z,1.50
2018-12-12T01:46:34.131Z,0.90
2018-12-12T01:49:03.092Z,1.13
2018-12-12T01:51:31.993Z,1.27
2018-12-12T01:54:00.899Z,1.13
2018-12-12T01:56:29.807Z,0.80
2018-12-12T01:58:58.704Z,1.37
2018-12-12T02:01:27.611Z,1.23
2018-12-12T02:03:56.505Z,0.83
2018-12-12T02:06:25.415Z,1.40
2018-12-12T02:08:54.379Z,1.03
2018-12-12T02:11:23.283Z,3.20
2018-12-12T02:13:52.239Z,0.70
2018-12-12T02:16:21.439Z,1.23
2018-12-12T02:18:50.495Z,1.03
2018-12-12T02:21:19.393Z,1.30
2018-12-12T02:23:48.373Z,1.60
2018-12-12T02:26:17.339Z,1.83
2018-12-12T02:28:46.243Z,1.07
2018-12-12T02:31:15.335Z,2.67
2018-12-12T02:33:44.314Z,1.30
2018-12-12T02:36:13.283Z,0.97
2018-12-12T02:38:42.184Z,1.97
2018-12-12T02:41:11.168Z,1.33
2018-12-12T02:43:40.128Z,2.70
2018-12-12T02:46:09.094Z,1.33
2018-12-12T02:48:38.090Z,1.00
2018-12-12T02:51:07.051Z,1.17
2018-12-12T02:53:36.019Z,2.03
2018-12-12T02:59:11.633Z,1.83
2018-12-12T03:01:40.535Z,1.80
2018-12-12T03:04:09.436Z,4.80
2018-12-12T03:06:38.459Z,1.40
2018-12-12T03:09:07.531Z,0.80
2018-12-12T03:11:36.421Z,1.70
2018-12-12T03:14:05.407Z,1.40
2018-12-12T03:16:34.363Z,2.17
2018-12-12T03:19:03.331Z,1.50
2018-12-12T03:21:32.236Z,1.83
2018-12-12T03:24:01.193Z,1.33
2018-12-12T03:26:30.383Z,4.03
2018-12-12T03:28:59.664Z,1.50
2018-12-12T03:31:28.757Z,1.40
2018-12-12T03:33:57.712Z,2.40
2018-12-12T03:36:26.707Z,1.20
2018-12-12T03:38:55.675Z,1.30
2018-12-12T03:41:24.571Z,2.33
2018-12-12T03:43:53.549Z,2.67
2018-12-12T03:46:22.631Z,2.60
2018-12-12T03:48:51.544Z,1.40
2018-12-12T03:51:20.505Z,1.43
2018-12-12T03:53:49.411Z,1.00
2018-12-12T03:56:18.312Z,1.17
2018-12-12T03:58:47.288Z,2.33
2018-12-12T04:01:16.472Z,1.30
2018-12-12T04:03:47.569Z,2.00
2018-12-12T04:06:16.547Z,1.47
2018-12-12T04:08:45.527Z,1.10
2018-12-12T04:11:14.425Z,0.77
2018-12-12T04:13:43.332Z,1.93
2018-12-12T04:16:12.699Z,1.30
2018-12-12T04:18:41.819Z,1.30
2018-12-12T04:21:10.708Z,2.13
2018-12-12T04:23:39.687Z,1.70
2018-12-12T04:26:08.599Z,1.90
2018-12-12T04:28:37.507Z,1.60
2018-12-12T04:31:06.445Z,1.53
2018-12-12T04:33:35.419Z,1.63
2018-12-12T04:36:04.405Z,2.43
2018-12-12T04:38:33.316Z,1.70
2018-12-12T04:41:02.297Z,0.77
2018-12-12T04:43:31.285Z,1.00
2018-12-12T04:46:00.294Z,1.07
2018-12-12T04:48:29.255Z,2.67
2018-12-12T04:50:58.435Z,1.47
2018-12-12T04:53:27.408Z,1.00
2018-12-12T04:55:56.310Z,1.30
2018-12-12T04:58:25.215Z,3.07
2018-12-12T05:00:54.184Z,2.00
2018-12-12T05:03:23.153Z,2.33
2018-12-12T05:05:52.131Z,1.77
2018-12-12T05:08:21.027Z,1.60
2018-12-12T05:10:49.932Z,1.80
2018-12-12T05:13:18.915Z,2.50
2018-12-12T05:15:47.895Z,2.03
2018-12-12T05:18:16.859Z,1.50
2018-12-12T05:20:45.757Z,2.57
2018-12-12T05:23:14.847Z,2.33
2018-12-12T05:25:43.816Z,1.57
2018-12-12T05:28:12.703Z,1.57
2018-12-12T05:30:41.614Z,2.17
2018-12-12T05:33:10.511Z,1.80
2018-12-12T05:35:39.420Z,1.00
2018-12-12T05:38:08.407Z,2.07
2018-12-12T05:40:37.704Z,4.27
2018-12-12T05:43:06.858Z,1.80
2018-12-12T05:45:36.646Z,2.10
2018-12-12T05:48:05.539Z,2.20
2018-12-12T05:50:34.524Z,1.97
2018-12-12T05:53:03.479Z,2.37
2018-12-12T05:55:32.484Z,1.97
2018-12-12T05:58:01.583Z,1.97
2018-12-12T06:00:30.549Z,2.27
2018-12-12T06:02:59.511Z,2.53
2018-12-12T06:05:28.475Z,2.23
2018-12-12T06:07:57.447Z,1.40
2018-12-12T06:10:26.539Z,2.43
2018-12-12T06:12:55.512Z,1.10
2018-12-12T06:15:24.708Z,1.90
2018-12-12T06:17:53.688Z,1.30
2018-12-12T06:20:22.883Z,1.37
2018-12-12T06:22:51.815Z,2.00
2018-12-12T06:25:20.780Z,1.70
2018-12-12T06:27:49.672Z,2.07
2018-12-12T06:30:18.645Z,2.77
2018-12-12T06:32:47.745Z,2.10
2018-12-12T06:35:16.864Z,3.27
2018-12-12T06:37:45.957Z,2.40
2018-12-12T06:40:15.042Z,1.23
2018-12-12T06:42:44.111Z,2.77
2018-12-12T06:45:13.055Z,1.93
2018-12-12T06:47:42.256Z,1.67
2018-12-12T06:50:11.249Z,4.53
2018-12-12T06:52:40.332Z,2.00
2018-12-12T06:55:09.427Z,3.13
2018-12-12T06:57:38.524Z,3.00
2018-12-12T07:00:07.523Z,2.50
2018-12-12T07:02:36.632Z,2.10
2018-12-12T07:05:05.767Z,2.60
2018-12-12T07:07:35.103Z,4.00
2018-12-12T07:10:05.130Z,3.97
2018-12-12T07:12:34.076Z,2.60
2018-12-12T07:15:03.279Z,1.70
2018-12-12T07:17:32.560Z,2.13
2018-12-12T07:20:01.465Z,3.33
2018-12-12T07:22:30.573Z,3.77
2018-12-12T07:24:59.616Z,3.03
2018-12-12T07:27:28.723Z,3.43
2018-12-12T07:29:57.712Z,2.33
2018-12-12T07:32:26.793Z,2.67
2018-12-12T07:34:56.227Z,2.70
2018-12-12T07:37:25.124Z,1.70
2018-12-12T07:39:54.213Z,3.37
2018-12-12T07:42:23.306Z,2.70
2018-12-12T07:44:52.207Z,2.17
2018-12-12T07:47:21.175Z,2.50
2018-12-12T07:49:50.078Z,2.60
2018-12-12T07:52:19.048Z,2.93
2018-12-12T07:54:48.087Z,4.53
2018-12-12T07:57:17.084Z,2.77
2018-12-12T07:59:46.167Z,2.13
2018-12-12T08:02:15.143Z,3.50
2018-12-12T08:04:44.178Z,2.93
2018-12-12T08:07:13.123Z,4.43
2018-12-12T08:09:42.108Z,3.17
2018-12-12T08:12:11.331Z,3.13
2018-12-12T08:14:40.294Z,3.23
2018-12-12T08:17:09.204Z,2.57
2018-12-12T08:19:38.108Z,3.43
2018-12-12T08:22:07.117Z,3.43
2018-12-12T08:24:36.089Z,2.40
2018-12-12T08:27:05.060Z,2.83
2018-12-12T08:29:34.053Z,2.50
2018-12-12T08:32:03.011Z,2.43
2018-12-12T08:34:32.017Z,3.13
2018-12-12T08:37:00.995Z,2.10
2018-12-12T08:39:29.960Z,2.10
2018-12-12T08:41:58.867Z,1.80
2018-12-12T08:44:27.818Z,1.87
2018-12-12T08:46:56.913Z,2.47
2018-12-12T08:49:25.890Z,1.90
2018-12-12T08:51:54.908Z,2.07
2018-12-12T08:54:23.812Z,2.73
2018-12-12T08:56:52.880Z,1.70
2018-12-12T08:59:21.884Z,1.87
2018-12-12T09:01:50.902Z,2.20
2018-12-12T09:04:19.998Z,1.70
2018-12-12T09:06:49.084Z,1.83
2018-12-12T09:09:18.041Z,2.17
2018-12-12T09:11:47.040Z,1.50
2018-12-12T09:14:16.000Z,1.27
2018-12-12T09:16:44.964Z,2.13
2018-12-12T09:19:14.059Z,1.73
2018-12-12T09:21:43.035Z,1.63
2018-12-12T09:24:12.128Z,1.20
2018-12-12T09:26:41.095Z,1.63
2018-12-12T09:29:10.068Z,1.87
2018-12-12T09:31:38.971Z,1.07
2018-12-12T09:34:08.071Z,1.03
2018-12-12T09:36:36.971Z,1.70
2018-12-12T09:39:07.649Z,1.20
2018-12-12T09:41:36.691Z,1.33
2018-12-12T09:44:05.606Z,1.17
2018-12-12T09:46:34.503Z,1.67
2018-12-12T09:49:03.629Z,2.10
2018-12-12T09:51:32.532Z,1.43
2018-12-12T09:54:01.483Z,1.70
2018-12-12T09:56:30.447Z,1.50
2018-12-12T09:58:59.435Z,1.40
2018-12-12T10:01:28.535Z,1.57
2018-12-12T10:03:57.495Z,1.13
2018-12-12T10:06:26.452Z,1.13
2018-12-12T10:08:55.397Z,0.97
2018-12-12T10:11:24.296Z,1.73
2018-12-12T10:13:53.255Z,1.23
2018-12-12T10:16:22.357Z,1.10
2018-12-12T10:18:51.330Z,1.20
2018-12-12T10:21:20.234Z,1.33
2018-12-12T10:23:49.140Z,1.73
2018-12-12T10:26:18.100Z,1.67
2018-12-12T10:28:47.088Z,1.87
2018-12-12T10:31:15.983Z,1.67
2018-12-12T10:33:44.891Z,2.90
2018-12-12T10:36:13.984Z,2.33
2018-12-12T10:38:43.068Z,3.47
2018-12-12T10:41:12.031Z,1.43
2018-12-12T10:43:41.003Z,1.80
2018-12-12T10:46:09.992Z,1.27
2018-12-12T10:48:38.967Z,2.83
2018-12-12T10:51:08.068Z,1.77
2018-12-12T10:53:37.197Z,3.60
2018-12-12T10:56:06.275Z,1.80
2018-12-12T10:58:35.268Z,1.63
2018-12-12T11:01:09.907Z,2.37
2018-12-12T11:03:44.191Z,3.10
2018-12-12T11:06:11.538Z,3.37
2018-12-12T11:08:40.496Z,2.20
2018-12-12T11:11:09.481Z,1.70
2018-12-12T11:13:38.381Z,1.70
2018-12-12T11:16:07.271Z,1.30
2018-12-12T11:18:36.383Z,2.03
2018-12-12T11:21:05.484Z,2.40
2018-12-12T11:23:34.478Z,2.07
2018-12-12T11:26:03.524Z,3.30
2018-12-12T11:28:32.611Z,3.53
2018-12-12T11:31:01.722Z,3.80
2018-12-12T11:33:30.688Z,2.43
2018-12-12T11:35:59.664Z,3.00
2018-12-12T11:38:28.656Z,3.30
2018-12-12T11:40:57.740Z,1.60
2018-12-12T11:43:26.842Z,2.00
2018-12-12T11:45:55.819Z,1.63
2018-12-12T11:48:24.715Z,2.40
2018-12-12T11:50:53.672Z,1.73
2018-12-12T11:53:22.575Z,1.40
2018-12-12T11:55:51.671Z,1.37
2018-12-12T11:58:20.635Z,3.30
2018-12-12T12:00:49.740Z,3.03
2018-12-12T12:03:18.645Z,1.60
2018-12-12T12:05:47.739Z,2.97
2018-12-12T12:08:16.825Z,2.50
2018-12-12T12:10:45.787Z,1.77
2018-12-12T12:13:14.724Z,1.67
2018-12-12T12:15:43.698Z,2.10
2018-12-12T12:18:12.639Z,1.53
2018-12-12T12:20:41.615Z,1.47
2018-12-12T12:23:10.615Z,2.03
2018-12-12T12:25:39.707Z,1.63
2018-12-12T12:28:08.681Z,3.43
2018-12-12T12:30:37.777Z,1.30
2018-12-12T12:33:06.751Z,1.40
2018-12-12T12:35:35.668Z,5.20
2018-12-12T12:38:04.843Z,2.83
2018-12-12T12:40:34.024Z,1.67
2018-12-12T12:43:03.004Z,2.03
2018-12-12T12:45:31.913Z,1.70
2018-12-12T12:48:00.999Z,1.97
2018-12-12T12:50:29.912Z,1.53
2018-12-12T12:52:58.903Z,1.53
2018-12-12T12:55:27.799Z,1.90
2018-12-12T12:57:56.897Z,1.30
2018-12-12T13:00:26.006Z,1.80
2018-12-12T13:02:55.104Z,2.57
2018-12-12T13:05:24.197Z,1.60
2018-12-12T13:07:53.288Z,1.73
2018-12-12T13:10:22.283Z,1.30
2018-12-12T13:12:51.544Z,2.47
2018-12-12T13:15:20.595Z,1.67
2018-12-12T13:17:49.507Z,2.83
2018-12-12T13:20:18.487Z,2.67
2018-12-12T13:22:47.455Z,1.90
2018-12-12T13:25:16.551Z,2.80
2018-12-12T13:27:45.507Z,2.00
2018-12-12T13:30:14.603Z,1.83
2018-12-12T13:32:43.517Z,1.80
2018-12-12T13:35:12.417Z,2.17
2018-12-12T13:37:41.390Z,2.70
2018-12-12T13:40:10.520Z,3.83
2018-12-12T13:42:39.531Z,4.90
2018-12-12T13:45:08.679Z,2.83
2018-12-12T13:47:37.659Z,1.97
2018-12-12T13:50:06.802Z,4.07
2018-12-12T13:52:35.763Z,2.33
2018-12-12T13:55:05.159Z,2.50
2018-12-12T13:57:34.130Z,2.50
2018-12-12T14:00:03.121Z,3.90
2018-12-12T14:02:32.088Z,2.43
2018-12-12T14:05:01.058Z,4.37
2018-12-12T14:07:30.033Z,2.53
2018-12-12T14:09:58.989Z,4.80
2018-12-12T14:12:28.003Z,4.30
2018-12-12T14:14:57.112Z,3.57
2018-12-12T14:17:26.040Z,3.87
2018-12-12T14:19:54.948Z,4.93
2018-12-12T14:22:24.051Z,4.87
2018-12-12T14:24:52.967Z,5.23
2018-12-12T14:27:21.871Z,4.53
2018-12-12T14:29:50.780Z,4.43
2018-12-12T14:32:19.759Z,4.77
2018-12-12T14:34:48.775Z,6.13
2018-12-12T14:37:17.731Z,3.50
2018-12-12T14:39:46.695Z,6.67
2018-12-12T14:42:15.819Z,4.47
2018-12-12T14:44:44.919Z,4.90
2018-12-12T14:47:13.931Z,5.30
2018-12-12T14:49:42.826Z,4.13
2018-12-12T14:52:11.915Z,6.67
2018-12-12T14:54:40.995Z,3.33
2018-12-12T14:57:10.091Z,6.57
2018-12-12T14:59:39.085Z,6.30
2018-12-12T15:02:08.167Z,5.80
2018-12-12T15:04:37.131Z,5.33
2018-12-12T15:07:06.223Z,4.37
2018-12-12T15:09:35.324Z,3.93
2018-12-12T15:12:04.335Z,5.40
2018-12-12T15:14:33.305Z,4.87
2018-12-12T15:17:02.207Z,4.57
2018-12-12T15:19:31.164Z,4.67
2018-12-12T15:22:00.131Z,4.87
2018-12-12T15:24:29.036Z,4.33
2018-12-12T15:26:58.143Z,4.43
2018-12-12T15:29:27.107Z,6.37
2018-12-12T15:31:56.080Z,6.10
2018-12-12T15:34:24.989Z,4.37
2018-12-12T15:36:54.083Z,5.07
2018-12-12T15:39:23.239Z,5.17
2018-12-12T15:41:52.135Z,5.30
2018-12-12T15:44:21.036Z,4.83
2018-12-12T15:46:49.956Z,3.97
2018-12-12T15:49:19.044Z,3.67
2018-12-12T15:51:47.939Z,5.43
2018-12-12T15:54:17.015Z,4.47
2018-12-12T15:56:46.119Z,7.20
2018-12-12T15:59:15.203Z,6.83
2018-12-12T16:01:44.111Z,5.00
2018-12-12T16:04:13.096Z,4.67
2018-12-12T16:06:42.011Z,4.90
2018-12-12T16:09:10.987Z,4.43
2018-12-12T16:11:39.987Z,5.30
2018-12-12T16:14:09.075Z,4.30
2018-12-12T16:16:38.310Z,5.03
2018-12-12T16:19:07.404Z,4.87
2018-12-12T16:21:36.295Z,5.73
2018-12-12T16:24:05.459Z,7.07
2018-12-12T16:26:34.618Z,4.03
2018-12-12T16:29:03.592Z,4.93
2018-12-12T16:31:32.560Z,4.60
2018-12-12T16:34:01.467Z,5.00
2018-12-12T16:36:30.395Z,5.53
2018-12-12T16:38:59.371Z,4.73
2018-12-12T16:41:28.327Z,4.97
2018-12-12T16:43:57.327Z,5.70
2018-12-12T16:46:26.398Z,4.37
2018-12-12T16:48:55.519Z,4.07
2018-12-12T16:51:24.505Z,4.27
2018-12-12T16:53:53.419Z,4.03
2018-12-12T16:56:22.391Z,5.57
2018-12-12T16:58:51.579Z,3.83
2018-12-12T17:01:20.781Z,4.90
2018-12-12T17:03:49.886Z,4.37
2018-12-12T17:06:18.886Z,4.47
2018-12-12T17:08:48.132Z,5.83
2018-12-12T17:11:17.125Z,5.07
2018-12-12T17:13:46.073Z,3.90
2018-12-12T17:16:15.159Z,8.43
2018-12-12T17:18:44.244Z,4.53
2018-12-12T17:21:13.444Z,3.90
2018-12-12T17:23:42.423Z,3.53
2018-12-12T17:26:11.328Z,4.10
2018-12-12T17:28:40.228Z,4.73
2018-12-12T17:31:09.207Z,4.77
2018-12-12T17:33:38.103Z,3.30
2018-12-12T17:36:07.068Z,4.60
2018-12-12T17:38:36.043Z,4.23
2018-12-12T17:41:05.016Z,5.07
2018-12-12T17:43:33.981Z,4.00
2018-12-12T17:46:02.961Z,4.20
2018-12-12T17:48:32.218Z,3.33
2018-12-12T17:51:01.469Z,3.07
2018-12-12T17:53:30.407Z,5.53
2018-12-12T17:55:59.459Z,4.40
2018-12-12T17:58:28.563Z,7.60
2018-12-12T18:00:57.857Z,3.67
2018-12-12T18:03:27.047Z,3.60
2018-12-12T18:05:55.987Z,3.00
2018-12-12T18:08:24.975Z,5.07
2018-12-12T18:10:53.944Z,4.27
2018-12-12T18:13:22.914Z,3.47
2018-12-12T18:15:52.015Z,4.43
2018-12-12T18:18:21.231Z,3.10
2018-12-12T18:20:50.331Z,4.77
2018-12-12T18:23:19.435Z,3.07
2018-12-12T18:25:48.523Z,4.80
2018-12-12T18:28:17.496Z,4.23
2018-12-12T18:30:46.465Z,2.57
2018-12-12T18:33:15.435Z,2.67
2018-12-12T18:35:44.332Z,2.60
2018-12-12T18:38:13.291Z,2.37
2018-12-12T18:40:42.252Z,6.37
2018-12-12T18:43:11.368Z,3.87
2018-12-12T18:45:40.460Z,3.27
2018-12-12T18:48:09.564Z,4.67
2018-12-12T18:50:38.739Z,2.90
2018-12-12T18:53:07.711Z,2.80
2018-12-12T18:55:36.651Z,2.83
2018-12-12T18:58:05.547Z,2.73
2018-12-12T19:00:34.444Z,2.67
2018-12-12T19:03:03.364Z,2.77
2018-12-12T19:05:32.260Z,2.90
2018-12-12T19:08:01.155Z,2.37
2018-12-12T19:10:30.163Z,2.53
2018-12-12T19:12:59.119Z,2.27
2018-12-12T19:15:28.074Z,2.10
2018-12-12T19:17:56.983Z,1.67
2018-12-12T19:20:25.955Z,2.17
2018-12-12T19:22:54.859Z,1.77
2018-12-12T19:25:23.847Z,1.40
2018-12-12T19:27:52.944Z,3.73
2018-12-12T19:30:22.039Z,2.63
2018-12-12T19:32:51.215Z,2.00
2018-12-12T19:35:20.219Z,2.13
2018-12-12T19:37:49.115Z,1.93
2018-12-12T19:40:18.012Z,2.00
2018-12-12T19:42:46.936Z,2.60
2018-12-12T19:45:15.899Z,1.83
2018-12-12T19:47:44.996Z,2.30
2018-12-12T19:50:13.976Z,1.63
2018-12-12T19:52:43.154Z,1.57
2018-12-12T19:55:12.127Z,2.47
2018-12-12T19:57:41.104Z,3.07
2018-12-12T20:00:10.355Z,1.67
2018-12-12T20:02:39.454Z,2.57
2018-12-12T20:05:08.647Z,2.23
2018-12-12T20:07:37.764Z,1.70
2018-12-12T20:10:06.773Z,1.50
2018-12-12T20:12:35.738Z,3.03
2018-12-12T20:15:05.612Z,1.60
2018-12-12T20:17:34.594Z,1.60
2018-12-12T20:20:04.703Z,2.40
2018-12-12T20:22:33.663Z,1.80
2018-12-12T20:25:02.631Z,2.03
2018-12-12T20:27:31.560Z,2.33
2018-12-12T20:30:00.456Z,2.63
2018-12-12T20:32:29.543Z,1.40
2018-12-12T20:34:58.624Z,1.40
2018-12-12T20:37:27.526Z,1.60
2018-12-12T20:39:56.544Z,1.97
2018-12-12T20:42:25.440Z,1.50
2018-12-12T20:44:54.495Z,1.33
2018-12-12T20:47:23.478Z,1.43
2018-12-12T20:49:52.421Z,1.87
2018-12-12T20:52:21.401Z,2.23
2018-12-12T20:54:50.295Z,3.00
2018-12-12T20:57:19.276Z,1.23
2018-12-12T20:59:48.244Z,2.37
2018-12-12T21:02:17.223Z,1.57
2018-12-12T21:04:46.129Z,1.30
2018-12-12T21:07:15.095Z,2.40
2018-12-12T21:09:44.079Z,2.60
2018-12-12T21:12:13.036Z,1.30
2018-12-12T21:14:42.008Z,1.43
2018-12-12T21:17:10.918Z,1.60
2018-12-12T21:19:39.871Z,1.67
2018-12-12T21:22:08.765Z,1.73
2018-12-12T21:24:37.708Z,2.90
2018-12-12T21:27:06.673Z,1.87
2018-12-12T21:29:35.624Z,2.40
2018-12-12T21:32:04.534Z,1.90
2018-12-12T21:34:33.427Z,1.80
2018-12-12T21:37:02.336Z,3.13
2018-12-12T21:39:31.292Z,1.93
2018-12-12T21:42:00.279Z,1.87
2018-12-12T21:44:29.173Z,2.13
2018-12-12T21:46:58.068Z,1.50
2018-12-12T21:49:26.971Z,1.70
2018-12-12T21:51:55.863Z,1.60
2018-12-12T21:54:24.835Z,1.50
2018-12-12T21:56:53.735Z,4.93
2018-12-12T21:59:22.851Z,2.10
2018-12-12T22:01:51.947Z,1.87
2018-12-12T22:04:21.422Z,2.20
2018-12-12T22:06:50.396Z,2.17
2018-12-12T22:09:19.523Z,2.00
2018-12-12T22:11:48.499Z,2.70
2018-12-12T22:14:18.439Z,1.37
2018-12-12T22:16:47.539Z,1.53
2018-12-12T22:19:16.519Z,2.33
2018-12-12T22:21:45.491Z,3.17
2018-12-12T22:24:14.583Z,1.60
2018-12-12T22:26:43.696Z,1.97
2018-12-12T22:29:13.035Z,2.00
2018-12-12T22:31:41.958Z,1.50
2018-12-12T22:34:11.258Z,2.63
2018-12-12T22:36:40.648Z,1.53
2018-12-12T22:39:09.764Z,3.03
2018-12-12T22:41:38.862Z,2.00
2018-12-12T22:44:07.859Z,3.03
2018-12-12T22:46:36.857Z,2.50
2018-12-12T22:49:05.807Z,4.40
2018-12-12T22:51:34.903Z,2.30
2018-12-12T22:54:03.972Z,1.93
2018-12-12T22:56:32.867Z,2.37
2018-12-12T22:59:01.761Z,3.33
2018-12-12T23:01:30.728Z,1.53
2018-12-12T23:03:59.816Z,1.87
2018-12-12T23:06:28.804Z,2.40
2018-12-12T23:08:57.699Z,4.03
2018-12-12T23:11:26.656Z,3.80
2018-12-12T23:13:55.647Z,3.17
2018-12-12T23:16:24.729Z,3.30
2018-12-12T23:18:53.697Z,2.63
2018-12-12T23:21:22.683Z,2.03
2018-12-12T23:23:51.801Z,2.83
2018-12-12T23:26:20.891Z,1.87
2018-12-12T23:28:49.980Z,2.27
2018-12-12T23:31:18.971Z,2.27
2018-12-12T23:33:47.848Z,2.47
2018-12-12T23:36:16.817Z,2.87
2018-12-12T23:38:45.907Z,3.40
2018-12-12T23:41:14.885Z,2.37
2018-12-12T23:43:43.849Z,3.80
2018-12-12T23:46:12.844Z,3.17
2018-12-12T23:48:41.824Z,2.13
2018-12-12T23:51:10.787Z,3.63
2018-12-12T23:53:39.783Z,3.20
2018-12-12T23:56:09.315Z,3.00
2018-12-12T23:58:38.226Z,2.30
